sensor_id;sensor_type;location;lat;lon;timestamp;pressure;altitude;pressure_sealevel;temperature;humidity
57250;BME280;43102;52.014;-0.680;2022-09-16T00:00:00;100710;;;13.59;59.71
57250;BME280;43102;52.014;-0.680;2022-09-16T00:01:00;100709;;;13.57;60.02
57250;BME280;43102;52.014;-0.680;2022-09-16T00:02:00;100709;;;13.57;60.02
57250;BME280;43102;52.014;-0.680;2022-09-16T00:03:00;100709;;;13.57;60.02
57250;BME280;43102;52.014;-0.680;2022-09-16T00:04:00;100709;;;13.57;60.02
57250;BME280;43102;52.014;-0.680;2022-09-16T00:05:00;100709;;;13.57;60.02
57250;BME280;43102;52.014;-0.680;2022-09-16T00:06:00;100717;;;13.55;60.22
57250;BME280;43102;52.014;-0.680;2022-09-16T00:07:00;100717;;;13.55;60.22
57250;BME280;43102;52.014;-0.680;2022-09-16T00:08:00;100717;;;13.55;60.22
57250;BME280;43102;52.014;-0.680;2022-09-16T00:09:00;100717;;;13.55;60.22
57250;BME280;43102;52.014;-0.680;2022-09-16T00:10:00;100717;;;13.55;60.22
57250;BME280;43102;52.014;-0.680;2022-09-16T00:11:00;100710;;;13.52;60.46
57250;BME280;43102;52.014;-0.680;2022-09-16T00:12:00;100710;;;13.52;60.46
57250;BME280;43102;52.014;-0.680;2022-09-16T00:13:00;100710;;;13.52;60.46
57250;BME280;43102;52.014;-0.680;2022-09-16T00:14:00;100710;;;13.52;60.46
57250;BME280;43102;52.014;-0.680;2022-09-16T00:15:00;100710;;;13.52;60.46
57250;BME280;43102;52.014;-0.680;2022-09-16T00:16:00;100712;;;13.48;60.87
57250;BME280;43102;52.014;-0.680;2022-09-16T00:17:00;100712;;;13.48;60.87
57250;BME280;43102;52.014;-0.680;2022-09-16T00:18:00;100712;;;13.48;60.87
57250;BME280;43102;52.014;-0.680;2022-09-16T00:19:00;100712;;;13.48;60.87
57250;BME280;43102;52.014;-0.680;2022-09-16T00:20:00;100712;;;13.48;60.87
57250;BME280;43102;52.014;-0.680;2022-09-16T00:21:00;100718;;;13.48;60.97
57250;BME280;43102;52.014;-0.680;2022-09-16T00:22:00;100718;;;13.48;60.97
57250;BME280;43102;52.014;-0.680;2022-09-16T00:23:00;100718;;;13.48;60.97
57250;BME280;43102;52.014;-0.680;2022-09-16T00:24:00;100718;;;13.48;60.97
57250;BME280;43102;52.014;-0.680;2022-09-16T00:25:00;100718;;;13.48;60.97
57250;BME280;43102;52.014;-0.680;2022-09-16T00:26:00;100721;;;13.48;61.14
57250;BME280;43102;52.014;-0.680;2022-09-16T00:27:00;100721;;;13.48;61.14
57250;BME280;43102;52.014;-0.680;2022-09-16T00:28:00;100721;;;13.48;61.14
57250;BME280;43102;52.014;-0.680;2022-09-16T00:29:00;100721;;;13.48;61.14
57250;BME280;43102;52.014;-0.680;2022-09-16T00:30:00;100721;;;13.48;61.14
57250;BME280;43102;52.014;-0.680;2022-09-16T00:31:00;100728;;;13.48;61.31
57250;BME280;43102;52.014;-0.680;2022-09-16T00:32:00;100728;;;13.48;61.31
57250;BME280;43102;52.014;-0.680;2022-09-16T00:33:00;100728;;;13.48;61.31
57250;BME280;43102;52.014;-0.680;2022-09-16T00:34:00;100728;;;13.48;61.31
57250;BME280;43102;52.014;-0.680;2022-09-16T00:35:00;100728;;;13.48;61.31
57250;BME280;43102;52.014;-0.680;2022-09-16T00:36:17;100724;;;13.48;61.51
57250;BME280;43102;52.014;-0.680;2022-09-16T00:37:00;100724;;;13.48;61.51
57250;BME280;43102;52.014;-0.680;2022-09-16T00:38:00;100724;;;13.48;61.51
57250;BME280;43102;52.014;-0.680;2022-09-16T00:39:00;100724;;;13.48;61.51
57250;BME280;43102;52.014;-0.680;2022-09-16T00:40:00;100724;;;13.48;61.51
57250;BME280;43102;52.014;-0.680;2022-09-16T00:41:00;100733;;;13.49;61.70
57250;BME280;43102;52.014;-0.680;2022-09-16T00:42:00;100733;;;13.49;61.70
57250;BME280;43102;52.014;-0.680;2022-09-16T00:43:00;100733;;;13.49;61.70
57250;BME280;43102;52.014;-0.680;2022-09-16T00:46:02;100735;;;13.49;62.17
57250;BME280;43102;52.014;-0.680;2022-09-16T00:47:00;100735;;;13.49;62.17
57250;BME280;43102;52.014;-0.680;2022-09-16T00:48:00;100735;;;13.49;62.17
57250;BME280;43102;52.014;-0.680;2022-09-16T00:49:02;100735;;;13.49;62.17
57250;BME280;43102;52.014;-0.680;2022-09-16T00:50:02;100735;;;13.49;62.17
57250;BME280;43102;52.014;-0.680;2022-09-16T00:51:01;100732;;;13.50;62.27
57250;BME280;43102;52.014;-0.680;2022-09-16T00:52:00;100732;;;13.50;62.27
57250;BME280;43102;52.014;-0.680;2022-09-16T00:53:00;100732;;;13.50;62.27
57250;BME280;43102;52.014;-0.680;2022-09-16T00:54:00;100732;;;13.50;62.27
57250;BME280;43102;52.014;-0.680;2022-09-16T00:55:00;100732;;;13.50;62.27
57250;BME280;43102;52.014;-0.680;2022-09-16T00:56:00;100723;;;13.49;62.41
57250;BME280;43102;52.014;-0.680;2022-09-16T00:57:00;100723;;;13.49;62.41
57250;BME280;43102;52.014;-0.680;2022-09-16T00:59:16;100723;;;13.49;62.41
57250;BME280;43102;52.014;-0.680;2022-09-16T01:00:00;100723;;;13.49;62.41
57250;BME280;43102;52.014;-0.680;2022-09-16T01:01:00;100727;;;13.48;62.67
57250;BME280;43102;52.014;-0.680;2022-09-16T01:02:03;100727;;;13.48;62.67
57250;BME280;43102;52.014;-0.680;2022-09-16T01:03:00;100727;;;13.48;62.67
57250;BME280;43102;52.014;-0.680;2022-09-16T01:04:02;100727;;;13.48;62.67
57250;BME280;43102;52.014;-0.680;2022-09-16T01:05:02;100727;;;13.48;62.67
57250;BME280;43102;52.014;-0.680;2022-09-16T01:06:00;100719;;;13.44;62.71
57250;BME280;43102;52.014;-0.680;2022-09-16T01:07:00;100719;;;13.44;62.71
57250;BME280;43102;52.014;-0.680;2022-09-16T01:08:00;100719;;;13.44;62.71
57250;BME280;43102;52.014;-0.680;2022-09-16T01:09:00;100719;;;13.44;62.71
57250;BME280;43102;52.014;-0.680;2022-09-16T01:10:00;100719;;;13.44;62.71
57250;BME280;43102;52.014;-0.680;2022-09-16T01:11:00;100721;;;13.38;62.82
57250;BME280;43102;52.014;-0.680;2022-09-16T01:12:00;100721;;;13.38;62.82
57250;BME280;43102;52.014;-0.680;2022-09-16T01:13:02;100721;;;13.38;62.82
57250;BME280;43102;52.014;-0.680;2022-09-16T01:14:00;100721;;;13.38;62.82
57250;BME280;43102;52.014;-0.680;2022-09-16T01:15:00;100721;;;13.38;62.82
57250;BME280;43102;52.014;-0.680;2022-09-16T01:17:03;100732;;;13.33;63.22
57250;BME280;43102;52.014;-0.680;2022-09-16T01:24:04;100734;;;13.28;63.35
57250;BME280;43102;52.014;-0.680;2022-09-16T01:28:06;100727;;;13.22;63.53
57250;BME280;43102;52.014;-0.680;2022-09-16T01:31:17;100734;;;13.15;63.76
57250;BME280;43102;52.014;-0.680;2022-09-16T01:32:04;100734;;;13.15;63.76
57250;BME280;43102;52.014;-0.680;2022-09-16T01:33:04;100734;;;13.15;63.76
57250;BME280;43102;52.014;-0.680;2022-09-16T01:34:06;100734;;;13.15;63.76
57250;BME280;43102;52.014;-0.680;2022-09-16T01:35:02;100734;;;13.15;63.76
57250;BME280;43102;52.014;-0.680;2022-09-16T01:36:03;100725;;;13.04;64.04
57250;BME280;43102;52.014;-0.680;2022-09-16T01:40:19;100725;;;13.04;64.04
57250;BME280;43102;52.014;-0.680;2022-09-16T01:46:17;100732;;;12.84;64.87
57250;BME280;43102;52.014;-0.680;2022-09-16T01:48:03;100732;;;12.84;64.87
57250;BME280;43102;52.014;-0.680;2022-09-16T01:49:01;100732;;;12.84;64.87
57250;BME280;43102;52.014;-0.680;2022-09-16T01:52:05;100733;;;12.76;64.81
57250;BME280;43102;52.014;-0.680;2022-09-16T01:54:08;100733;;;12.76;64.81
57250;BME280;43102;52.014;-0.680;2022-09-16T01:55:01;100733;;;12.76;64.81
57250;BME280;43102;52.014;-0.680;2022-09-16T01:56:08;100728;;;12.68;65.11
57250;BME280;43102;52.014;-0.680;2022-09-16T01:57:01;100728;;;12.68;65.11
57250;BME280;43102;52.014;-0.680;2022-09-16T01:59:03;100728;;;12.68;65.11
57250;BME280;43102;52.014;-0.680;2022-09-16T02:00:08;100728;;;12.68;65.11
57250;BME280;43102;52.014;-0.680;2022-09-16T02:01:03;100728;;;12.64;65.21
57250;BME280;43102;52.014;-0.680;2022-09-16T02:03:01;100728;;;12.64;65.21
57250;BME280;43102;52.014;-0.680;2022-09-16T02:04:01;100728;;;12.64;65.21
57250;BME280;43102;52.014;-0.680;2022-09-16T02:05:00;100728;;;12.64;65.21
57250;BME280;43102;52.014;-0.680;2022-09-16T02:06:01;100727;;;12.58;65.33
57250;BME280;43102;52.014;-0.680;2022-09-16T02:07:00;100727;;;12.58;65.33
57250;BME280;43102;52.014;-0.680;2022-09-16T02:08:01;100727;;;12.58;65.33
57250;BME280;43102;52.014;-0.680;2022-09-16T02:09:01;100727;;;12.58;65.33
57250;BME280;43102;52.014;-0.680;2022-09-16T02:10:02;100727;;;12.58;65.33
57250;BME280;43102;52.014;-0.680;2022-09-16T02:11:00;100729;;;12.52;65.43
57250;BME280;43102;52.014;-0.680;2022-09-16T02:12:00;100729;;;12.52;65.43
57250;BME280;43102;52.014;-0.680;2022-09-16T02:13:08;100729;;;12.52;65.43
57250;BME280;43102;52.014;-0.680;2022-09-16T02:14:02;100729;;;12.52;65.43
57250;BME280;43102;52.014;-0.680;2022-09-16T02:15:01;100729;;;12.52;65.43
57250;BME280;43102;52.014;-0.680;2022-09-16T02:16:03;100733;;;12.44;65.92
57250;BME280;43102;52.014;-0.680;2022-09-16T02:17:00;100733;;;12.44;65.92
57250;BME280;43102;52.014;-0.680;2022-09-16T02:18:01;100733;;;12.44;65.92
57250;BME280;43102;52.014;-0.680;2022-09-16T02:19:01;100733;;;12.44;65.92
57250;BME280;43102;52.014;-0.680;2022-09-16T02:20:02;100733;;;12.44;65.92
57250;BME280;43102;52.014;-0.680;2022-09-16T02:21:00;100739;;;12.40;66.22
57250;BME280;43102;52.014;-0.680;2022-09-16T02:22:00;100739;;;12.40;66.22
57250;BME280;43102;52.014;-0.680;2022-09-16T02:23:02;100739;;;12.40;66.22
57250;BME280;43102;52.014;-0.680;2022-09-16T02:24:01;100739;;;12.40;66.22
57250;BME280;43102;52.014;-0.680;2022-09-16T02:25:00;100739;;;12.40;66.22
57250;BME280;43102;52.014;-0.680;2022-09-16T02:26:00;100737;;;12.35;66.26
57250;BME280;43102;52.014;-0.680;2022-09-16T02:27:01;100737;;;12.35;66.26
57250;BME280;43102;52.014;-0.680;2022-09-16T02:28:00;100737;;;12.35;66.26
57250;BME280;43102;52.014;-0.680;2022-09-16T02:29:00;100737;;;12.35;66.26
57250;BME280;43102;52.014;-0.680;2022-09-16T02:30:01;100737;;;12.35;66.26
57250;BME280;43102;52.014;-0.680;2022-09-16T02:31:01;100736;;;12.32;66.41
57250;BME280;43102;52.014;-0.680;2022-09-16T02:32:00;100736;;;12.32;66.41
57250;BME280;43102;52.014;-0.680;2022-09-16T02:33:01;100736;;;12.32;66.41
57250;BME280;43102;52.014;-0.680;2022-09-16T02:34:01;100736;;;12.32;66.41
57250;BME280;43102;52.014;-0.680;2022-09-16T02:35:00;100736;;;12.32;66.41
57250;BME280;43102;52.014;-0.680;2022-09-16T02:36:00;100729;;;12.23;66.50
57250;BME280;43102;52.014;-0.680;2022-09-16T02:37:04;100729;;;12.23;66.50
57250;BME280;43102;52.014;-0.680;2022-09-16T02:38:01;100729;;;12.23;66.50
57250;BME280;43102;52.014;-0.680;2022-09-16T02:39:07;100729;;;12.23;66.50
57250;BME280;43102;52.014;-0.680;2022-09-16T02:40:01;100729;;;12.23;66.50
57250;BME280;43102;52.014;-0.680;2022-09-16T02:41:00;100733;;;12.19;66.71
57250;BME280;43102;52.014;-0.680;2022-09-16T02:42:00;100733;;;12.19;66.71
57250;BME280;43102;52.014;-0.680;2022-09-16T02:43:00;100733;;;12.19;66.71
57250;BME280;43102;52.014;-0.680;2022-09-16T02:44:00;100733;;;12.19;66.71
57250;BME280;43102;52.014;-0.680;2022-09-16T02:45:00;100733;;;12.19;66.71
57250;BME280;43102;52.014;-0.680;2022-09-16T02:47:07;100737;;;12.12;67.08
57250;BME280;43102;52.014;-0.680;2022-09-16T02:49:03;100737;;;12.12;67.08
57250;BME280;43102;52.014;-0.680;2022-09-16T02:50:01;100737;;;12.12;67.08
57250;BME280;43102;52.014;-0.680;2022-09-16T02:51:03;100730;;;12.06;67.12
57250;BME280;43102;52.014;-0.680;2022-09-16T02:53:01;100730;;;12.06;67.12
57250;BME280;43102;52.014;-0.680;2022-09-16T02:55:53;100730;;;12.06;67.12
57250;BME280;43102;52.014;-0.680;2022-09-16T02:56:01;100729;;;11.99;67.11
57250;BME280;43102;52.014;-0.680;2022-09-16T02:57:00;100729;;;11.99;67.11
57250;BME280;43102;52.014;-0.680;2022-09-16T02:58:00;100729;;;11.99;67.11
57250;BME280;43102;52.014;-0.680;2022-09-16T02:59:00;100729;;;11.99;67.11
57250;BME280;43102;52.014;-0.680;2022-09-16T03:00:00;100729;;;11.99;67.11
57250;BME280;43102;52.014;-0.680;2022-09-16T03:01:00;100732;;;11.93;67.17
57250;BME280;43102;52.014;-0.680;2022-09-16T03:02:00;100732;;;11.93;67.17
57250;BME280;43102;52.014;-0.680;2022-09-16T03:03:00;100732;;;11.93;67.17
57250;BME280;43102;52.014;-0.680;2022-09-16T03:04:00;100732;;;11.93;67.17
57250;BME280;43102;52.014;-0.680;2022-09-16T03:05:00;100732;;;11.93;67.17
57250;BME280;43102;52.014;-0.680;2022-09-16T03:06:05;100728;;;11.88;67.39
57250;BME280;43102;52.014;-0.680;2022-09-16T03:07:00;100728;;;11.88;67.39
57250;BME280;43102;52.014;-0.680;2022-09-16T03:08:00;100728;;;11.88;67.39
57250;BME280;43102;52.014;-0.680;2022-09-16T03:09:00;100728;;;11.88;67.39
57250;BME280;43102;52.014;-0.680;2022-09-16T03:10:00;100728;;;11.88;67.39
57250;BME280;43102;52.014;-0.680;2022-09-16T03:11:02;100720;;;11.87;67.49
57250;BME280;43102;52.014;-0.680;2022-09-16T03:12:05;100720;;;11.87;67.49
57250;BME280;43102;52.014;-0.680;2022-09-16T03:13:18;100720;;;11.87;67.49
57250;BME280;43102;52.014;-0.680;2022-09-16T03:15:02;100720;;;11.87;67.49
57250;BME280;43102;52.014;-0.680;2022-09-16T03:16:06;100728;;;11.81;67.90
57250;BME280;43102;52.014;-0.680;2022-09-16T03:20:19;100728;;;11.81;67.90
57250;BME280;43102;52.014;-0.680;2022-09-16T03:23:12;100726;;;11.83;67.91
57250;BME280;43102;52.014;-0.680;2022-09-16T03:24:06;100726;;;11.83;67.91
57250;BME280;43102;52.014;-0.680;2022-09-16T03:27:02;100725;;;11.86;68.12
57250;BME280;43102;52.014;-0.680;2022-09-16T03:28:01;100725;;;11.86;68.12
57250;BME280;43102;52.014;-0.680;2022-09-16T03:29:01;100725;;;11.86;68.12
57250;BME280;43102;52.014;-0.680;2022-09-16T03:30:02;100725;;;11.86;68.12
57250;BME280;43102;52.014;-0.680;2022-09-16T03:33:03;100728;;;11.86;68.52
57250;BME280;43102;52.014;-0.680;2022-09-16T03:35:01;100728;;;11.86;68.52
57250;BME280;43102;52.014;-0.680;2022-09-16T03:36:00;100730;;;11.89;68.48
57250;BME280;43102;52.014;-0.680;2022-09-16T03:37:01;100730;;;11.89;68.48
57250;BME280;43102;52.014;-0.680;2022-09-16T03:38:00;100730;;;11.89;68.48
57250;BME280;43102;52.014;-0.680;2022-09-16T03:39:00;100730;;;11.89;68.48
57250;BME280;43102;52.014;-0.680;2022-09-16T03:40:03;100730;;;11.89;68.48
57250;BME280;43102;52.014;-0.680;2022-09-16T03:41:00;100726;;;11.88;68.67
57250;BME280;43102;52.014;-0.680;2022-09-16T03:42:00;100726;;;11.88;68.67
57250;BME280;43102;52.014;-0.680;2022-09-16T03:43:00;100726;;;11.88;68.67
57250;BME280;43102;52.014;-0.680;2022-09-16T03:44:00;100726;;;11.88;68.67
57250;BME280;43102;52.014;-0.680;2022-09-16T03:45:00;100726;;;11.88;68.67
57250;BME280;43102;52.014;-0.680;2022-09-16T03:46:00;100724;;;11.88;69.11
57250;BME280;43102;52.014;-0.680;2022-09-16T03:47:00;100724;;;11.88;69.11
57250;BME280;43102;52.014;-0.680;2022-09-16T03:48:00;100724;;;11.88;69.11
57250;BME280;43102;52.014;-0.680;2022-09-16T03:49:00;100724;;;11.88;69.11
57250;BME280;43102;52.014;-0.680;2022-09-16T03:50:00;100724;;;11.88;69.11
57250;BME280;43102;52.014;-0.680;2022-09-16T03:51:00;100729;;;11.85;68.83
57250;BME280;43102;52.014;-0.680;2022-09-16T03:52:00;100729;;;11.85;68.83
57250;BME280;43102;52.014;-0.680;2022-09-16T03:53:00;100729;;;11.85;68.83
57250;BME280;43102;52.014;-0.680;2022-09-16T03:54:00;100729;;;11.85;68.83
57250;BME280;43102;52.014;-0.680;2022-09-16T03:55:00;100729;;;11.85;68.83
57250;BME280;43102;52.014;-0.680;2022-09-16T03:56:00;100729;;;11.85;68.98
57250;BME280;43102;52.014;-0.680;2022-09-16T03:57:00;100729;;;11.85;68.98
57250;BME280;43102;52.014;-0.680;2022-09-16T03:58:00;100729;;;11.85;68.98
57250;BME280;43102;52.014;-0.680;2022-09-16T03:59:00;100729;;;11.85;68.98
57250;BME280;43102;52.014;-0.680;2022-09-16T04:00:00;100729;;;11.85;68.98
57250;BME280;43102;52.014;-0.680;2022-09-16T04:01:00;100736;;;11.83;69.31
57250;BME280;43102;52.014;-0.680;2022-09-16T04:02:00;100736;;;11.83;69.31
57250;BME280;43102;52.014;-0.680;2022-09-16T04:03:00;100736;;;11.83;69.31
57250;BME280;43102;52.014;-0.680;2022-09-16T04:04:00;100736;;;11.83;69.31
57250;BME280;43102;52.014;-0.680;2022-09-16T04:05:00;100736;;;11.83;69.31
57250;BME280;43102;52.014;-0.680;2022-09-16T04:06:00;100735;;;11.79;69.46
57250;BME280;43102;52.014;-0.680;2022-09-16T04:07:00;100735;;;11.79;69.46
57250;BME280;43102;52.014;-0.680;2022-09-16T04:08:00;100735;;;11.79;69.46
57250;BME280;43102;52.014;-0.680;2022-09-16T04:09:01;100735;;;11.79;69.46
57250;BME280;43102;52.014;-0.680;2022-09-16T04:10:00;100735;;;11.79;69.46
57250;BME280;43102;52.014;-0.680;2022-09-16T04:11:01;100739;;;11.63;69.91
57250;BME280;43102;52.014;-0.680;2022-09-16T04:12:00;100739;;;11.63;69.91
57250;BME280;43102;52.014;-0.680;2022-09-16T04:13:00;100739;;;11.63;69.91
57250;BME280;43102;52.014;-0.680;2022-09-16T04:14:00;100739;;;11.63;69.91
57250;BME280;43102;52.014;-0.680;2022-09-16T04:15:00;100739;;;11.63;69.91
57250;BME280;43102;52.014;-0.680;2022-09-16T04:16:00;100743;;;11.62;70.40
57250;BME280;43102;52.014;-0.680;2022-09-16T04:17:00;100743;;;11.62;70.40
57250;BME280;43102;52.014;-0.680;2022-09-16T04:18:00;100743;;;11.62;70.40
57250;BME280;43102;52.014;-0.680;2022-09-16T04:19:00;100743;;;11.62;70.40
57250;BME280;43102;52.014;-0.680;2022-09-16T04:20:00;100743;;;11.62;70.40
57250;BME280;43102;52.014;-0.680;2022-09-16T04:21:00;100742;;;11.59;70.23
57250;BME280;43102;52.014;-0.680;2022-09-16T04:22:00;100742;;;11.59;70.23
57250;BME280;43102;52.014;-0.680;2022-09-16T04:23:00;100742;;;11.59;70.23
57250;BME280;43102;52.014;-0.680;2022-09-16T04:24:00;100742;;;11.59;70.23
57250;BME280;43102;52.014;-0.680;2022-09-16T04:25:00;100742;;;11.59;70.23
57250;BME280;43102;52.014;-0.680;2022-09-16T04:26:00;100747;;;11.58;70.36
57250;BME280;43102;52.014;-0.680;2022-09-16T04:27:00;100747;;;11.58;70.36
57250;BME280;43102;52.014;-0.680;2022-09-16T04:28:00;100747;;;11.58;70.36
57250;BME280;43102;52.014;-0.680;2022-09-16T04:29:00;100747;;;11.58;70.36
57250;BME280;43102;52.014;-0.680;2022-09-16T04:30:00;100747;;;11.58;70.36
57250;BME280;43102;52.014;-0.680;2022-09-16T04:31:00;100746;;;11.56;70.31
57250;BME280;43102;52.014;-0.680;2022-09-16T04:32:01;100746;;;11.56;70.31
57250;BME280;43102;52.014;-0.680;2022-09-16T04:33:00;100746;;;11.56;70.31
57250;BME280;43102;52.014;-0.680;2022-09-16T04:34:00;100746;;;11.56;70.31
57250;BME280;43102;52.014;-0.680;2022-09-16T04:35:00;100746;;;11.56;70.31
57250;BME280;43102;52.014;-0.680;2022-09-16T04:36:00;100742;;;11.57;70.34
57250;BME280;43102;52.014;-0.680;2022-09-16T04:37:00;100742;;;11.57;70.34
57250;BME280;43102;52.014;-0.680;2022-09-16T04:38:00;100742;;;11.57;70.34
57250;BME280;43102;52.014;-0.680;2022-09-16T04:39:00;100742;;;11.57;70.34
57250;BME280;43102;52.014;-0.680;2022-09-16T04:40:00;100742;;;11.57;70.34
57250;BME280;43102;52.014;-0.680;2022-09-16T04:41:00;100747;;;11.57;70.36
57250;BME280;43102;52.014;-0.680;2022-09-16T04:42:00;100747;;;11.57;70.36
57250;BME280;43102;52.014;-0.680;2022-09-16T04:43:00;100747;;;11.57;70.36
57250;BME280;43102;52.014;-0.680;2022-09-16T04:44:00;100747;;;11.57;70.36
57250;BME280;43102;52.014;-0.680;2022-09-16T04:45:00;100747;;;11.57;70.36
57250;BME280;43102;52.014;-0.680;2022-09-16T04:46:00;100745;;;11.52;70.58
57250;BME280;43102;52.014;-0.680;2022-09-16T04:47:00;100745;;;11.52;70.58
57250;BME280;43102;52.014;-0.680;2022-09-16T04:48:00;100745;;;11.52;70.58
57250;BME280;43102;52.014;-0.680;2022-09-16T04:49:00;100745;;;11.52;70.58
57250;BME280;43102;52.014;-0.680;2022-09-16T04:50:00;100745;;;11.52;70.58
57250;BME280;43102;52.014;-0.680;2022-09-16T04:51:01;100742;;;11.53;70.35
57250;BME280;43102;52.014;-0.680;2022-09-16T04:52:00;100742;;;11.53;70.35
57250;BME280;43102;52.014;-0.680;2022-09-16T04:53:00;100742;;;11.53;70.35
57250;BME280;43102;52.014;-0.680;2022-09-16T04:54:00;100742;;;11.53;70.35
57250;BME280;43102;52.014;-0.680;2022-09-16T04:55:00;100742;;;11.53;70.35
57250;BME280;43102;52.014;-0.680;2022-09-16T04:57:00;100746;;;11.55;70.38
57250;BME280;43102;52.014;-0.680;2022-09-16T04:58:00;100746;;;11.55;70.38
57250;BME280;43102;52.014;-0.680;2022-09-16T04:59:01;100746;;;11.55;70.38
57250;BME280;43102;52.014;-0.680;2022-09-16T05:00:00;100746;;;11.55;70.38
57250;BME280;43102;52.014;-0.680;2022-09-16T05:01:04;100747;;;11.57;70.43
57250;BME280;43102;52.014;-0.680;2022-09-16T05:02:00;100747;;;11.57;70.43
57250;BME280;43102;52.014;-0.680;2022-09-16T05:03:00;100747;;;11.57;70.43
57250;BME280;43102;52.014;-0.680;2022-09-16T05:04:00;100747;;;11.57;70.43
57250;BME280;43102;52.014;-0.680;2022-09-16T05:05:00;100747;;;11.57;70.43
57250;BME280;43102;52.014;-0.680;2022-09-16T05:06:04;100744;;;11.59;70.63
57250;BME280;43102;52.014;-0.680;2022-09-16T05:07:00;100744;;;11.59;70.63
57250;BME280;43102;52.014;-0.680;2022-09-16T05:08:00;100744;;;11.59;70.63
57250;BME280;43102;52.014;-0.680;2022-09-16T05:09:00;100744;;;11.59;70.63
57250;BME280;43102;52.014;-0.680;2022-09-16T05:10:00;100744;;;11.59;70.63
57250;BME280;43102;52.014;-0.680;2022-09-16T05:11:02;100747;;;11.62;70.79
57250;BME280;43102;52.014;-0.680;2022-09-16T05:12:00;100747;;;11.62;70.79
57250;BME280;43102;52.014;-0.680;2022-09-16T05:13:00;100747;;;11.62;70.79
57250;BME280;43102;52.014;-0.680;2022-09-16T05:14:00;100747;;;11.62;70.79
57250;BME280;43102;52.014;-0.680;2022-09-16T05:15:00;100747;;;11.62;70.79
57250;BME280;43102;52.014;-0.680;2022-09-16T05:16:01;100745;;;11.63;71.65
57250;BME280;43102;52.014;-0.680;2022-09-16T05:17:00;100745;;;11.63;71.65
57250;BME280;43102;52.014;-0.680;2022-09-16T05:18:00;100745;;;11.63;71.65
57250;BME280;43102;52.014;-0.680;2022-09-16T05:19:02;100745;;;11.63;71.65
57250;BME280;43102;52.014;-0.680;2022-09-16T05:20:00;100745;;;11.63;71.65
57250;BME280;43102;52.014;-0.680;2022-09-16T05:21:00;100753;;;11.66;71.85
57250;BME280;43102;52.014;-0.680;2022-09-16T05:22:00;100753;;;11.66;71.85
57250;BME280;43102;52.014;-0.680;2022-09-16T05:23:00;100753;;;11.66;71.85
57250;BME280;43102;52.014;-0.680;2022-09-16T05:24:00;100753;;;11.66;71.85
57250;BME280;43102;52.014;-0.680;2022-09-16T05:25:00;100753;;;11.66;71.85
57250;BME280;43102;52.014;-0.680;2022-09-16T05:26:02;100761;;;11.72;72.07
57250;BME280;43102;52.014;-0.680;2022-09-16T05:27:00;100761;;;11.72;72.07
57250;BME280;43102;52.014;-0.680;2022-09-16T05:28:00;100761;;;11.72;72.07
57250;BME280;43102;52.014;-0.680;2022-09-16T05:29:00;100761;;;11.72;72.07
57250;BME280;43102;52.014;-0.680;2022-09-16T05:30:00;100761;;;11.72;72.07
57250;BME280;43102;52.014;-0.680;2022-09-16T05:32:00;100771;;;11.77;72.10
57250;BME280;43102;52.014;-0.680;2022-09-16T05:33:00;100771;;;11.77;72.10
57250;BME280;43102;52.014;-0.680;2022-09-16T05:34:00;100771;;;11.77;72.10
57250;BME280;43102;52.014;-0.680;2022-09-16T05:35:00;100771;;;11.77;72.10
57250;BME280;43102;52.014;-0.680;2022-09-16T05:36:08;100770;;;11.83;72.12
57250;BME280;43102;52.014;-0.680;2022-09-16T05:37:00;100770;;;11.83;72.12
57250;BME280;43102;52.014;-0.680;2022-09-16T05:38:00;100770;;;11.83;72.12
57250;BME280;43102;52.014;-0.680;2022-09-16T05:39:00;100770;;;11.83;72.12
57250;BME280;43102;52.014;-0.680;2022-09-16T05:40:00;100770;;;11.83;72.12
57250;BME280;43102;52.014;-0.680;2022-09-16T05:41:00;100770;;;11.87;72.29
57250;BME280;43102;52.014;-0.680;2022-09-16T05:42:00;100770;;;11.87;72.29
57250;BME280;43102;52.014;-0.680;2022-09-16T05:43:00;100770;;;11.87;72.29
57250;BME280;43102;52.014;-0.680;2022-09-16T05:44:00;100770;;;11.87;72.29
57250;BME280;43102;52.014;-0.680;2022-09-16T05:45:00;100770;;;11.87;72.29
57250;BME280;43102;52.014;-0.680;2022-09-16T05:46:00;100781;;;11.89;72.76
57250;BME280;43102;52.014;-0.680;2022-09-16T05:47:00;100781;;;11.89;72.76
57250;BME280;43102;52.014;-0.680;2022-09-16T05:48:00;100781;;;11.89;72.76
57250;BME280;43102;52.014;-0.680;2022-09-16T05:49:00;100781;;;11.89;72.76
57250;BME280;43102;52.014;-0.680;2022-09-16T05:50:00;100781;;;11.89;72.76
57250;BME280;43102;52.014;-0.680;2022-09-16T05:51:02;100781;;;11.82;73.46
57250;BME280;43102;52.014;-0.680;2022-09-16T05:52:00;100781;;;11.82;73.46
57250;BME280;43102;52.014;-0.680;2022-09-16T05:53:00;100781;;;11.82;73.46
57250;BME280;43102;52.014;-0.680;2022-09-16T05:54:00;100781;;;11.82;73.46
57250;BME280;43102;52.014;-0.680;2022-09-16T05:55:00;100781;;;11.82;73.46
57250;BME280;43102;52.014;-0.680;2022-09-16T05:56:01;100781;;;11.87;73.50
57250;BME280;43102;52.014;-0.680;2022-09-16T05:57:00;100781;;;11.87;73.50
57250;BME280;43102;52.014;-0.680;2022-09-16T05:58:00;100781;;;11.87;73.50
57250;BME280;43102;52.014;-0.680;2022-09-16T05:59:00;100781;;;11.87;73.50
57250;BME280;43102;52.014;-0.680;2022-09-16T06:00:00;100781;;;11.87;73.50
57250;BME280;43102;52.014;-0.680;2022-09-16T06:01:01;100788;;;11.90;73.59
57250;BME280;43102;52.014;-0.680;2022-09-16T06:02:00;100788;;;11.90;73.59
57250;BME280;43102;52.014;-0.680;2022-09-16T06:03:00;100788;;;11.90;73.59
57250;BME280;43102;52.014;-0.680;2022-09-16T06:04:00;100788;;;11.90;73.59
57250;BME280;43102;52.014;-0.680;2022-09-16T06:05:00;100788;;;11.90;73.59
57250;BME280;43102;52.014;-0.680;2022-09-16T06:06:01;100788;;;11.90;73.65
57250;BME280;43102;52.014;-0.680;2022-09-16T06:07:00;100788;;;11.90;73.65